sensor_id;sensor_type;location;lat;lon;timestamp;temperature;humidity
1429;DHT22;708;51.442;7.016;2023-01-29T00:01:13;1.20;1.00
1429;DHT22;708;51.442;7.016;2023-01-29T00:03:41;1.10;28.90
1429;DHT22;708;51.442;7.016;2023-01-29T00:06:09;1.10;99.90
1429;DHT22;708;51.442;7.016;2023-01-29T00:08:37;1.10;99.90
1429;DHT22;708;51.442;7.016;2023-01-29T00:11:06;1.00;1.00
1429;DHT22;708;51.442;7.016;2023-01-29T00:13:33;1.00;56.10
1429;DHT22;708;51.442;7.016;2023-01-29T00:16:00;1.00;51.40
1429;DHT22;708;51.442;7.016;2023-01-29T00:18:28;0.90;99.90
1429;DHT22;708;51.442;7.016;2023-01-29T00:20:56;0.90;99.90
1429;DHT22;708;51.442;7.016;2023-01-29T00:23:23;0.80;1.00
1429;DHT22;708;51.442;7.016;2023-01-29T00:25:50;0.80;1.00
1429;DHT22;708;51.442;7.016;2023-01-29T00:28:16;0.80;1.00
1429;DHT22;708;51.442;7.016;2023-01-29T00:30:43;0.70;99.90
1429;DHT22;708;51.442;7.016;2023-01-29T00:33:10;0.70;99.90
1429;DHT22;708;51.442;7.016;2023-01-29T00:35:39;0.70;1.00
1429;DHT22;708;51.442;7.016;2023-01-29T00:38:08;0.80;1.00
1429;DHT22;708;51.442;7.016;2023-01-29T00:40:37;0.70;1.00
1429;DHT22;708;51.442;7.016;2023-01-29T00:43:20;0.70;1.00
1429;DHT22;708;51.442;7.016;2023-01-29T00:46:04;0.70;1.00
1429;DHT22;708;51.442;7.016;2023-01-29T00:48:32;0.80;1.00
1429;DHT22;708;51.442;7.016;2023-01-29T00:50:59;0.80;1.00
1429;DHT22;708;51.442;7.016;2023-01-29T00:53:28;0.80;1.00
1429;DHT22;708;51.442;7.016;2023-01-29T00:55:54;0.80;99.90
1429;DHT22;708;51.442;7.016;2023-01-29T00:58:21;0.90;99.90
1429;DHT22;708;51.442;7.016;2023-01-29T01:00:53;0.90;99.90
1429;DHT22;708;51.442;7.016;2023-01-29T01:03:20;0.80;99.90
1429;DHT22;708;51.442;7.016;2023-01-29T01:05:45;0.80;99.90
1429;DHT22;708;51.442;7.016;2023-01-29T01:08:12;0.90;99.90
1429;DHT22;708;51.442;7.016;2023-01-29T01:11:03;0.90;45.40
1429;DHT22;708;51.442;7.016;2023-01-29T01:13:31;0.90;99.90
1429;DHT22;708;51.442;7.016;2023-01-29T01:15:58;0.80;99.90
1429;DHT22;708;51.442;7.016;2023-01-29T01:18:28;0.90;71.40
1429;DHT22;708;51.442;7.016;2023-01-29T01:20:57;0.90;1.00
1429;DHT22;708;51.442;7.016;2023-01-29T01:23:24;0.90;1.00
1429;DHT22;708;51.442;7.016;2023-01-29T01:25:52;0.90;14.10
1429;DHT22;708;51.442;7.016;2023-01-29T01:28:20;0.90;1.00
1429;DHT22;708;51.442;7.016;2023-01-29T01:30:47;0.90;1.00
1429;DHT22;708;51.442;7.016;2023-01-29T01:33:13;0.90;1.00
1429;DHT22;708;51.442;7.016;2023-01-29T01:35:40;0.90;55.20
1429;DHT22;708;51.442;7.016;2023-01-29T01:38:07;0.90;1.00
1429;DHT22;708;51.442;7.016;2023-01-29T01:40:34;0.90;1.00
1429;DHT22;708;51.442;7.016;2023-01-29T01:43:00;0.90;6.00
1429;DHT22;708;51.442;7.016;2023-01-29T01:45:30;0.80;60.20
1429;DHT22;708;51.442;7.016;2023-01-29T01:48:00;0.90;99.90
1429;DHT22;708;51.442;7.016;2023-01-29T01:50:31;0.90;99.90
1429;DHT22;708;51.442;7.016;2023-01-29T01:53:04;0.80;99.90
1429;DHT22;708;51.442;7.016;2023-01-29T01:55:35;0.80;1.00
1429;DHT22;708;51.442;7.016;2023-01-29T01:58:07;0.90;1.00
1429;DHT22;708;51.442;7.016;2023-01-29T02:00:40;0.80;1.00
1429;DHT22;708;51.442;7.016;2023-01-29T02:03:11;0.80;1.00
1429;DHT22;708;51.442;7.016;2023-01-29T02:05:56;0.90;1.00
1429;DHT22;708;51.442;7.016;2023-01-29T02:08:46;0.90;1.00
1429;DHT22;708;51.442;7.016;2023-01-29T02:11:33;0.90;1.00
1429;DHT22;708;51.442;7.016;2023-01-29T02:14:00;0.90;1.00
1429;DHT22;708;51.442;7.016;2023-01-29T02:16:28;0.90;41.50
1429;DHT22;708;51.442;7.016;2023-01-29T02:18:55;0.90;1.00
1429;DHT22;708;51.442;7.016;2023-01-29T02:21:58;0.90;1.00
1429;DHT22;708;51.442;7.016;2023-01-29T02:24:44;0.80;1.00
1429;DHT22;708;51.442;7.016;2023-01-29T02:27:19;0.80;1.00
1429;DHT22;708;51.442;7.016;2023-01-29T02:29:55;0.80;1.00
1429;DHT22;708;51.442;7.016;2023-01-29T02:32:32;0.80;1.00
1429;DHT22;708;51.442;7.016;2023-01-29T02:35:09;0.70;1.00
1429;DHT22;708;51.442;7.016;2023-01-29T02:37:58;0.70;92.70
1429;DHT22;708;51.442;7.016;2023-01-29T02:40:30;0.80;51.30
1429;DHT22;708;51.442;7.016;2023-01-29T02:43:07;0.80;21.70
1429;DHT22;708;51.442;7.016;2023-01-29T02:45:44;0.80;1.00
1429;DHT22;708;51.442;7.016;2023-01-29T02:48:17;0.80;1.00
1429;DHT22;708;51.442;7.016;2023-01-29T02:50:49;0.80;1.00
1429;DHT22;708;51.442;7.016;2023-01-29T02:53:25;0.80;1.00
1429;DHT22;708;51.442;7.016;2023-01-29T02:55:56;0.80;1.00
1429;DHT22;708;51.442;7.016;2023-01-29T02:58:28;0.80;1.00
1429;DHT22;708;51.442;7.016;2023-01-29T03:01:00;0.80;1.00
1429;DHT22;708;51.442;7.016;2023-01-29T03:03:33;0.80;1.00
1429;DHT22;708;51.442;7.016;2023-01-29T03:06:04;0.80;1.00
1429;DHT22;708;51.442;7.016;2023-01-29T03:08:37;0.70;1.00
1429;DHT22;708;51.442;7.016;2023-01-29T03:11:09;0.70;1.00
1429;DHT22;708;51.442;7.016;2023-01-29T03:13:41;0.70;1.00
1429;DHT22;708;51.442;7.016;2023-01-29T03:16:16;0.70;1.00
1429;DHT22;708;51.442;7.016;2023-01-29T03:18:48;0.70;1.00
1429;DHT22;708;51.442;7.016;2023-01-29T03:21:24;0.70;1.00
1429;DHT22;708;51.442;7.016;2023-01-29T03:24:10;0.70;1.00
1429;DHT22;708;51.442;7.016;2023-01-29T03:26:57;0.70;96.30
1429;DHT22;708;51.442;7.016;2023-01-29T03:29:46;0.70;99.90
1429;DHT22;708;51.442;7.016;2023-01-29T03:32:32;0.70;99.90
1429;DHT22;708;51.442;7.016;2023-01-29T03:35:02;0.60;99.90
1429;DHT22;708;51.442;7.016;2023-01-29T03:37:33;0.60;99.90
1429;DHT22;708;51.442;7.016;2023-01-29T03:40:03;0.60;99.90
1429;DHT22;708;51.442;7.016;2023-01-29T03:42:41;0.60;99.90
1429;DHT22;708;51.442;7.016;2023-01-29T03:45:14;0.60;99.90
1429;DHT22;708;51.442;7.016;2023-01-29T03:47:50;0.70;99.90
1429;DHT22;708;51.442;7.016;2023-01-29T03:50:30;0.70;99.90
1429;DHT22;708;51.442;7.016;2023-01-29T03:53:03;0.70;99.90
1429;DHT22;708;51.442;7.016;2023-01-29T03:55:34;0.70;99.90
1429;DHT22;708;51.442;7.016;2023-01-29T03:58:05;0.60;99.90
1429;DHT22;708;51.442;7.016;2023-01-29T04:00:39;0.60;99.90
1429;DHT22;708;51.442;7.016;2023-01-29T04:03:13;0.70;99.90
1429;DHT22;708;51.442;7.016;2023-01-29T04:05:46;0.70;99.90
1429;DHT22;708;51.442;7.016;2023-01-29T04:08:18;0.70;99.90
1429;DHT22;708;51.442;7.016;2023-01-29T04:10:48;0.70;99.90
1429;DHT22;708;51.442;7.016;2023-01-29T04:13:17;0.70;99.90
1429;DHT22;708;51.442;7.016;2023-01-29T04:15:48;0.80;99.90
1429;DHT22;708;51.442;7.016;2023-01-29T04:18:17;0.80;99.90
1429;DHT22;708;51.442;7.016;2023-01-29T04:20:44;0.80;99.90
1429;DHT22;708;51.442;7.016;2023-01-29T04:23:19;0.90;99.90
1429;DHT22;708;51.442;7.016;2023-01-29T04:25:52;1.00;99.90
1429;DHT22;708;51.442;7.016;2023-01-29T04:28:27;1.00;35.40
1429;DHT22;708;51.442;7.016;2023-01-29T04:30:58;1.10;1.00
1429;DHT22;708;51.442;7.016;2023-01-29T04:33:34;1.20;99.90
1429;DHT22;708;51.442;7.016;2023-01-29T04:36:20;1.30;1.00
1429;DHT22;708;51.442;7.016;2023-01-29T04:38:57;1.30;99.90
1429;DHT22;708;51.442;7.016;2023-01-29T04:41:30;1.30;99.90
1429;DHT22;708;51.442;7.016;2023-01-29T04:44:03;1.40;99.90
1429;DHT22;708;51.442;7.016;2023-01-29T04:46:36;1.50;99.90
1429;DHT22;708;51.442;7.016;2023-01-29T04:49:14;1.50;1.00
1429;DHT22;708;51.442;7.016;2023-01-29T04:51:48;1.60;99.90
1429;DHT22;708;51.442;7.016;2023-01-29T04:54:22;1.60;1.00
1429;DHT22;708;51.442;7.016;2023-01-29T04:56:53;1.70;1.00
1429;DHT22;708;51.442;7.016;2023-01-29T04:59:26;1.70;99.90
1429;DHT22;708;51.442;7.016;2023-01-29T05:01:56;1.70;99.90
1429;DHT22;708;51.442;7.016;2023-01-29T05:04:26;1.80;99.90
1429;DHT22;708;51.442;7.016;2023-01-29T05:06:56;1.80;99.90
1429;DHT22;708;51.442;7.016;2023-01-29T05:09:23;1.80;40.40
1429;DHT22;708;51.442;7.016;2023-01-29T05:11:51;1.90;1.00
1429;DHT22;708;51.442;7.016;2023-01-29T05:14:18;1.90;1.00
1429;DHT22;708;51.442;7.016;2023-01-29T05:16:50;1.90;1.00
1429;DHT22;708;51.442;7.016;2023-01-29T05:19:17;1.90;1.00
1429;DHT22;708;51.442;7.016;2023-01-29T05:21:47;2.00;99.90
1429;DHT22;708;51.442;7.016;2023-01-29T05:24:17;2.00;99.90
1429;DHT22;708;51.442;7.016;2023-01-29T05:26:46;2.00;99.90
1429;DHT22;708;51.442;7.016;2023-01-29T05:29:30;2.00;99.90
1429;DHT22;708;51.442;7.016;2023-01-29T05:31:57;1.90;99.90
1429;DHT22;708;51.442;7.016;2023-01-29T05:34:24;1.90;99.90
1429;DHT22;708;51.442;7.016;2023-01-29T05:36:52;1.80;1.00
1429;DHT22;708;51.442;7.016;2023-01-29T05:39:18;1.80;1.00
1429;DHT22;708;51.442;7.016;2023-01-29T05:41:45;1.80;1.00
1429;DHT22;708;51.442;7.016;2023-01-29T05:44:12;1.80;1.00
1429;DHT22;708;51.442;7.016;2023-01-29T05:46:39;1.80;31.50
1429;DHT22;708;51.442;7.016;2023-01-29T05:49:06;1.90;6.30
1429;DHT22;708;51.442;7.016;2023-01-29T05:51:32;1.80;22.80
1429;DHT22;708;51.442;7.016;2023-01-29T05:54:00;1.90;71.80
1429;DHT22;708;51.442;7.016;2023-01-29T05:56:27;1.90;1.00
1429;DHT22;708;51.442;7.016;2023-01-29T05:58:54;1.90;1.00
1429;DHT22;708;51.442;7.016;2023-01-29T06:01:22;1.90;1.00
1429;DHT22;708;51.442;7.016;2023-01-29T06:03:50;1.90;12.80
1429;DHT22;708;51.442;7.016;2023-01-29T06:06:17;2.00;2.00
1429;DHT22;708;51.442;7.016;2023-01-29T06:08:43;2.00;1.00
1429;DHT22;708;51.442;7.016;2023-01-29T06:11:14;2.10;1.00
1429;DHT22;708;51.442;7.016;2023-01-29T06:13:43;2.10;99.90
1429;DHT22;708;51.442;7.016;2023-01-29T06:16:11;2.10;1.00
1429;DHT22;708;51.442;7.016;2023-01-29T06:18:38;2.10;1.00
1429;DHT22;708;51.442;7.016;2023-01-29T06:21:08;2.20;1.00
1429;DHT22;708;51.442;7.016;2023-01-29T06:23:35;2.20;1.00
1429;DHT22;708;51.442;7.016;2023-01-29T06:26:04;2.20;99.90
1429;DHT22;708;51.442;7.016;2023-01-29T06:28:32;2.30;1.00
1429;DHT22;708;51.442;7.016;2023-01-29T06:31:01;2.40;99.90
1429;DHT22;708;51.442;7.016;2023-01-29T06:33:28;2.40;58.30
1429;DHT22;708;51.442;7.016;2023-01-29T06:35:56;2.50;5.30
1429;DHT22;708;51.442;7.016;2023-01-29T06:38:23;2.50;1.00
1429;DHT22;708;51.442;7.016;2023-01-29T06:40:51;2.60;1.00
1429;DHT22;708;51.442;7.016;2023-01-29T06:43:17;2.60;1.00
1429;DHT22;708;51.442;7.016;2023-01-29T06:45:50;2.60;1.00
1429;DHT22;708;51.442;7.016;2023-01-29T06:48:18;2.60;99.90
1429;DHT22;708;51.442;7.016;2023-01-29T06:50:45;2.60;99.90
1429;DHT22;708;51.442;7.016;2023-01-29T06:53:13;2.60;99.90
1429;DHT22;708;51.442;7.016;2023-01-29T06:55:40;2.60;99.90
1429;DHT22;708;51.442;7.016;2023-01-29T06:58:09;2.60;99.90
1429;DHT22;708;51.442;7.016;2023-01-29T07:00:36;2.60;99.90
1429;DHT22;708;51.442;7.016;2023-01-29T07:03:04;2.50;99.90
1429;DHT22;708;51.442;7.016;2023-01-29T07:05:31;2.40;1.00
1429;DHT22;708;51.442;7.016;2023-01-29T07:07:58;2.30;1.00
1429;DHT22;708;51.442;7.016;2023-01-29T07:10:25;2.30;99.90
1429;DHT22;708;51.442;7.016;2023-01-29T07:12:51;2.20;99.90
1429;DHT22;708;51.442;7.016;2023-01-29T07:15:19;2.10;1.00
1429;DHT22;708;51.442;7.016;2023-01-29T07:17:55;2.10;1.00
1429;DHT22;708;51.442;7.016;2023-01-29T07:20:24;2.10;1.00
1429;DHT22;708;51.442;7.016;2023-01-29T07:22:51;2.10;99.90
1429;DHT22;708;51.442;7.016;2023-01-29T07:25:18;2.20;1.00
1429;DHT22;708;51.442;7.016;2023-01-29T07:27:45;2.20;70.70
1429;DHT22;708;51.442;7.016;2023-01-29T07:30:13;2.30;99.90
1429;DHT22;708;51.442;7.016;2023-01-29T07:32:40;2.40;99.90
1429;DHT22;708;51.442;7.016;2023-01-29T07:35:08;2.40;99.90
1429;DHT22;708;51.442;7.016;2023-01-29T07:37:36;2.50;96.50
1429;DHT22;708;51.442;7.016;2023-01-29T07:40:04;2.50;1.00
1429;DHT22;708;51.442;7.016;2023-01-29T07:42:36;2.50;37.90
1429;DHT22;708;51.442;7.016;2023-01-29T07:45:03;2.50;1.00
1429;DHT22;708;51.442;7.016;2023-01-29T07:47:30;2.50;1.00
1429;DHT22;708;51.442;7.016;2023-01-29T07:49:56;2.50;1.00
1429;DHT22;708;51.442;7.016;2023-01-29T07:52:23;2.60;1.00
1429;DHT22;708;51.442;7.016;2023-01-29T07:54:51;2.50;1.00
1429;DHT22;708;51.442;7.016;2023-01-29T07:57:18;2.50;1.00
1429;DHT22;708;51.442;7.016;2023-01-29T07:59:44;2.50;1.00
1429;DHT22;708;51.442;7.016;2023-01-29T08:02:11;2.60;1.00
1429;DHT22;708;51.442;7.016;2023-01-29T08:04:38;2.60;1.00
1429;DHT22;708;51.442;7.016;2023-01-29T08:07:05;2.50;1.00
1429;DHT22;708;51.442;7.016;2023-01-29T08:09:34;2.60;1.00
1429;DHT22;708;51.442;7.016;2023-01-29T08:12:02;2.60;1.00
1429;DHT22;708;51.442;7.016;2023-01-29T08:14:29;2.70;1.00
1429;DHT22;708;51.442;7.016;2023-01-29T08:16:56;2.80;1.00
1429;DHT22;708;51.442;7.016;2023-01-29T08:19:22;2.80;99.90
1429;DHT22;708;51.442;7.016;2023-01-29T08:21:49;2.90;99.90
1429;DHT22;708;51.442;7.016;2023-01-29T08:24:16;2.90;94.10
1429;DHT22;708;51.442;7.016;2023-01-29T08:26:43;2.90;41.50
1429;DHT22;708;51.442;7.016;2023-01-29T08:29:11;2.90;17.60
1429;DHT22;708;51.442;7.016;2023-01-29T08:31:38;3.00;1.00
1429;DHT22;708;51.442;7.016;2023-01-29T08:34:04;2.80;99.50
1429;DHT22;708;51.442;7.016;2023-01-29T08:36:31;2.80;99.90
1429;DHT22;708;51.442;7.016;2023-01-29T08:38:59;2.80;99.90
1429;DHT22;708;51.442;7.016;2023-01-29T08:41:25;2.80;99.90
1429;DHT22;708;51.442;7.016;2023-01-29T08:43:52;2.90;99.90
1429;DHT22;708;51.442;7.016;2023-01-29T08:46:20;3.00;99.90
1429;DHT22;708;51.442;7.016;2023-01-29T08:48:47;3.00;37.30
1429;DHT22;708;51.442;7.016;2023-01-29T08:51:13;3.10;23.80
1429;DHT22;708;51.442;7.016;2023-01-29T08:53:40;3.10;1.00
1429;DHT22;708;51.442;7.016;2023-01-29T08:56:07;3.00;1.00
1429;DHT22;708;51.442;7.016;2023-01-29T08:58:34;3.00;1.00
1429;DHT22;708;51.442;7.016;2023-01-29T09:01:07;2.90;24.30
1429;DHT22;708;51.442;7.016;2023-01-29T09:03:36;3.00;40.80
1429;DHT22;708;51.442;7.016;2023-01-29T09:06:05;2.90;24.10
1429;DHT22;708;51.442;7.016;2023-01-29T09:08:32;2.90;99.90
1429;DHT22;708;51.442;7.016;2023-01-29T09:10:59;2.90;43.70
1429;DHT22;708;51.442;7.016;2023-01-29T09:13:26;2.90;46.30
1429;DHT22;708;51.442;7.016;2023-01-29T09:15:53;2.90;99.90
1429;DHT22;708;51.442;7.016;2023-01-29T09:18:19;2.90;79.40
1429;DHT22;708;51.442;7.016;2023-01-29T09:20:48;2.90;90.70
1429;DHT22;708;51.442;7.016;2023-01-29T09:23:14;3.00;78.30
1429;DHT22;708;51.442;7.016;2023-01-29T09:25:42;3.00;68.20
1429;DHT22;708;51.442;7.016;2023-01-29T09:28:08;3.00;84.80
1429;DHT22;708;51.442;7.016;2023-01-29T09:30:35;3.00;73.50
1429;DHT22;708;51.442;7.016;2023-01-29T09:33:02;3.10;18.30
1429;DHT22;708;51.442;7.016;2023-01-29T09:35:29;3.20;1.00
1429;DHT22;708;51.442;7.016;2023-01-29T09:37:58;3.20;1.00
1429;DHT22;708;51.442;7.016;2023-01-29T09:40:28;3.20;1.00
1429;DHT22;708;51.442;7.016;2023-01-29T09:43:00;3.30;1.00
1429;DHT22;708;51.442;7.016;2023-01-29T09:45:29;3.40;99.90
1429;DHT22;708;51.442;7.016;2023-01-29T09:47:58;3.50;99.90
1429;DHT22;708;51.442;7.016;2023-01-29T09:50:35;3.60;99.90
1429;DHT22;708;51.442;7.016;2023-01-29T09:53:12;3.70;99.90
1429;DHT22;708;51.442;7.016;2023-01-29T09:55:44;3.70;99.90
1429;DHT22;708;51.442;7.016;2023-01-29T09:58:16;3.80;99.90
1429;DHT22;708;51.442;7.016;2023-01-29T10:00:49;3.80;99.90
1429;DHT22;708;51.442;7.016;2023-01-29T10:03:31;3.70;99.90
1429;DHT22;708;51.442;7.016;2023-01-29T10:06:25;3.70;99.90
1429;DHT22;708;51.442;7.016;2023-01-29T10:09:20;3.80;99.90
1429;DHT22;708;51.442;7.016;2023-01-29T10:11:59;3.80;99.90
1429;DHT22;708;51.442;7.016;2023-01-29T10:14:37;3.90;99.90
1429;DHT22;708;51.442;7.016;2023-01-29T10:17:23;3.90;87.10
1429;DHT22;708;51.442;7.016;2023-01-29T10:20:12;4.00;44.90
1429;DHT22;708;51.442;7.016;2023-01-29T10:22:48;3.90;31.60
1429;DHT22;708;51.442;7.016;2023-01-29T10:25:21;3.90;55.00
1429;DHT22;708;51.442;7.016;2023-01-29T10:27:50;3.90;85.40
1429;DHT22;708;51.442;7.016;2023-01-29T10:30:25;3.90;32.70
1429;DHT22;708;51.442;7.016;2023-01-29T10:32:54;3.90;26.20
1429;DHT22;708;51.442;7.016;2023-01-29T10:35:23;4.00;14.80
1429;DHT22;708;51.442;7.016;2023-01-29T10:37:53;4.00;16.20
1429;DHT22;708;51.442;7.016;2023-01-29T10:40:23;4.20;1.00
1429;DHT22;708;51.442;7.016;2023-01-29T10:42:59;4.30;1.00
1429;DHT22;708;51.442;7.016;2023-01-29T10:45:32;4.40;1.00
1429;DHT22;708;51.442;7.016;2023-01-29T10:48:34;4.50;1.00
1429;DHT22;708;51.442;7.016;2023-01-29T10:51:11;4.40;1.00
1429;DHT22;708;51.442;7.016;2023-01-29T10:53:47;4.40;1.00
1429;DHT22;708;51.442;7.016;2023-01-29T10:56:29;4.30;1.00
1429;DHT22;708;51.442;7.016;2023-01-29T10:59:02;4.30;1.00
1429;DHT22;708;51.442;7.016;2023-01-29T11:01:30;4.20;1.00
1429;DHT22;708;51.442;7.016;2023-01-29T11:03:59;4.30;1.00
1429;DHT22;708;51.442;7.016;2023-01-29T11:06:29;4.20;1.00
1429;DHT22;708;51.442;7.016;2023-01-29T11:09:02;4.10;1.00
1429;DHT22;708;51.442;7.016;2023-01-29T11:11:39;4.10;1.00
1429;DHT22;708;51.442;7.016;2023-01-29T11:14:11;4.10;1.00
1429;DHT22;708;51.442;7.016;2023-01-29T11:16:40;4.20;1.00
1429;DHT22;708;51.442;7.016;2023-01-29T11:19:08;4.20;1.00
1429;DHT22;708;51.442;7.016;2023-01-29T11:21:51;4.40;1.00
1429;DHT22;708;51.442;7.016;2023-01-29T11:24:18;4.40;1.00
1429;DHT22;708;51.442;7.016;2023-01-29T11:26:48;4.40;1.00
1429;DHT22;708;51.442;7.016;2023-01-29T11:29:37;4.40;1.00
1429;DHT22;708;51.442;7.016;2023-01-29T11:32:06;4.30;1.00
1429;DHT22;708;51.442;7.016;2023-01-29T11:34:33;4.30;1.00
1429;DHT22;708;51.442;7.016;2023-01-29T11:37:01;4.30;1.00
1429;DHT22;708;51.442;7.016;2023-01-29T11:39:29;4.30;1.00
1429;DHT22;708;51.442;7.016;2023-01-29T11:41:58;4.30;1.00
1429;DHT22;708;51.442;7.016;2023-01-29T11:44:27;4.30;1.00
1429;DHT22;708;51.442;7.016;2023-01-29T11:47:08;4.30;1.00
1429;DHT22;708;51.442;7.016;2023-01-29T11:49:37;4.30;1.00
1429;DHT22;708;51.442;7.016;2023-01-29T11:52:08;4.30;1.00
1429;DHT22;708;51.442;7.016;2023-01-29T11:54:38;4.40;1.00
1429;DHT22;708;51.442;7.016;2023-01-29T11:57:26;4.40;1.00
1429;DHT22;708;51.442;7.016;2023-01-29T11:59:55;4.40;1.00
1429;DHT22;708;51.442;7.016;2023-01-29T12:02:27;4.50;1.00
1429;DHT22;708;51.442;7.016;2023-01-29T12:04:59;4.50;1.00
1429;DHT22;708;51.442;7.016;2023-01-29T12:07:26;4.50;1.00
1429;DHT22;708;51.442;7.016;2023-01-29T12:09:55;4.60;1.00
1429;DHT22;708;51.442;7.016;2023-01-29T12:12:35;4.60;1.00
1429;DHT22;708;51.442;7.016;2023-01-29T12:15:20;4.60;1.00
1429;DHT22;708;51.442;7.016;2023-01-29T12:18:03;4.60;1.00
1429;DHT22;708;51.442;7.016;2023-01-29T12:20:34;4.60;1.00
1429;DHT22;708;51.442;7.016;2023-01-29T12:23:10;4.70;1.00
1429;DHT22;708;51.442;7.016;2023-01-29T12:25:45;4.70;1.00
1429;DHT22;708;51.442;7.016;2023-01-29T12:28:21;4.80;1.00
1429;DHT22;708;51.442;7.016;2023-01-29T12:30:59;4.90;1.00
1429;DHT22;708;51.442;7.016;2023-01-29T12:33:37;4.90;1.00
1429;DHT22;708;51.442;7.016;2023-01-29T12:36:11;5.00;1.00
1429;DHT22;708;51.442;7.016;2023-01-29T12:38:39;4.90;1.00
1429;DHT22;708;51.442;7.016;2023-01-29T12:41:16;4.90;1.00
1429;DHT22;708;51.442;7.016;2023-01-29T12:43:52;4.90;1.00
1429;DHT22;708;51.442;7.016;2023-01-29T12:46:25;4.90;1.00
1429;DHT22;708;51.442;7.016;2023-01-29T12:48:55;5.00;1.00
1429;DHT22;708;51.442;7.016;2023-01-29T12:51:25;5.00;1.00
1429;DHT22;708;51.442;7.016;2023-01-29T12:53:56;4.90;1.00
1429;DHT22;708;51.442;7.016;2023-01-29T12:56:28;5.00;1.00
1429;DHT22;708;51.442;7.016;2023-01-29T12:59:00;5.10;1.00
1429;DHT22;708;51.442;7.016;2023-01-29T13:01:33;5.10;1.00
1429;DHT22;708;51.442;7.016;2023-01-29T13:04:04;5.20;1.00
1429;DHT22;708;51.442;7.016;2023-01-29T13:06:36;5.20;1.00
1429;DHT22;708;51.442;7.016;2023-01-29T13:09:10;5.20;1.00
1429;DHT22;708;51.442;7.016;2023-01-29T13:11:40;5.10;1.00
1429;DHT22;708;51.442;7.016;2023-01-29T13:14:19;5.20;1.00
1429;DHT22;708;51.442;7.016;2023-01-29T13:16:50;5.30;1.00
1429;DHT22;708;51.442;7.016;2023-01-29T13:19:21;5.20;1.00
1429;DHT22;708;51.442;7.016;2023-01-29T13:21:53;5.10;1.00
1429;DHT22;708;51.442;7.016;2023-01-29T13:24:23;5.20;1.00
1429;DHT22;708;51.442;7.016;2023-01-29T13:26:51;5.10;1.00
1429;DHT22;708;51.442;7.016;2023-01-29T13:29:22;5.10;1.00
1429;DHT22;708;51.442;7.016;2023-01-29T13:31:50;5.10;1.00
1429;DHT22;708;51.442;7.016;2023-01-29T13:34:22;5.20;1.00
1429;DHT22;708;51.442;7.016;2023-01-29T13:36:51;5.30;1.00
1429;DHT22;708;51.442;7.016;2023-01-29T13:39:23;5.40;1.00
1429;DHT22;708;51.442;7.016;2023-01-29T13:41:51;5.40;99.90
1429;DHT22;708;51.442;7.016;2023-01-29T13:44:23;5.50;99.90
1429;DHT22;708;51.442;7.016;2023-01-29T13:46:54;5.50;99.90
1429;DHT22;708;51.442;7.016;2023-01-29T13:49:28;5.40;99.90
1429;DHT22;708;51.442;7.016;2023-01-29T13:51:56;5.30;99.90
1429;DHT22;708;51.442;7.016;2023-01-29T13:54:24;5.30;99.90
1429;DHT22;708;51.442;7.016;2023-01-29T13:56:58;5.20;99.90
1429;DHT22;708;51.442;7.016;2023-01-29T13:59:51;5.20;1.00
1429;DHT22;708;51.442;7.016;2023-01-29T14:02:25;5.30;1.00
1429;DHT22;708;51.442;7.016;2023-01-29T14:05:32;5.30;1.00
1429;DHT22;708;51.442;7.016;2023-01-29T14:08:05;5.40;1.00
1429;DHT22;708;51.442;7.016;2023-01-29T14:10:33;5.40;1.00
1429;DHT22;708;51.442;7.016;2023-01-29T14:13:25;5.30;1.00
1429;DHT22;708;51.442;7.016;2023-01-29T14:16:27;5.40;1.00
1429;DHT22;708;51.442;7.016;2023-01-29T14:18:59;5.40;1.00
1429;DHT22;708;51.442;7.016;2023-01-29T14:21:29;5.30;1.00
1429;DHT22;708;51.442;7.016;2023-01-29T14:23:58;5.20;1.00
1429;DHT22;708;51.442;7.016;2023-01-29T14:26:30;5.20;1.00
1429;DHT22;708;51.442;7.016;2023-01-29T14:29:06;5.10;1.00
1429;DHT22;708;51.442;7.016;2023-01-29T14:31:46;5.00;1.00
1429;DHT22;708;51.442;7.016;2023-01-29T14:34:19;5.10;1.00
1429;DHT22;708;51.442;7.016;2023-01-29T14:36:47;5.10;1.00
1429;DHT22;708;51.442;7.016;2023-01-29T14:39:28;5.10;1.00
1429;DHT22;708;51.442;7.016;2023-01-29T14:41:57;5.10;1.00
1429;DHT22;708;51.442;7.016;2023-01-29T14:48:01;4.90;1.00
1429;DHT22;708;51.442;7.016;2023-01-29T14:50:44;4.90;1.00
1429;DHT22;708;51.442;7.016;2023-01-29T14:53:21;4.90;1.00
1429;DHT22;708;51.442;7.016;2023-01-29T14:55:53;4.90;1.00
1429;DHT22;708;51.442;7.016;2023-01-29T14:58:26;4.90;1.00
1429;DHT22;708;51.442;7.016;2023-01-29T15:00:56;4.90;1.00
1429;DHT22;708;51.442;7.016;2023-01-29T15:03:34;4.80;1.00
1429;DHT22;708;51.442;7.016;2023-01-29T15:06:04;4.70;1.00
1429;DHT22;708;51.442;7.016;2023-01-29T15:08:36;4.70;1.00
1429;DHT22;708;51.442;7.016;2023-01-29T15:11:10;4.80;1.00
1429;DHT22;708;51.442;7.016;2023-01-29T15:14:02;4.80;1.00
1429;DHT22;708;51.442;7.016;2023-01-29T15:16:34;4.80;1.00
1429;DHT22;708;51.442;7.016;2023-01-29T15:19:12;4.90;1.00
1429;DHT22;708;51.442;7.016;2023-01-29T15:22:02;4.90;1.00
1429;DHT22;708;51.442;7.016;2023-01-29T15:24:29;4.90;1.00
1429;DHT22;708;51.442;7.016;2023-01-29T15:26:55;4.90;1.00
1429;DHT22;708;51.442;7.016;2023-01-29T15:29:24;4.90;1.00
1429;DHT22;708;51.442;7.016;2023-01-29T15:31:52;4.90;1.00
1429;DHT22;708;51.442;7.016;2023-01-29T15:34:20;4.90;1.00
1429;DHT22;708;51.442;7.016;2023-01-29T15:36:48;4.90;1.00
1429;DHT22;708;51.442;7.016;2023-01-29T15:39:16;4.80;1.00
1429;DHT22;708;51.442;7.016;2023-01-29T15:41:44;4.80;1.00
1429;DHT22;708;51.442;7.016;2023-01-29T15:44:13;4.80;1.00
1429;DHT22;708;51.442;7.016;2023-01-29T15:46:42;4.80;3.40
1429;DHT22;708;51.442;7.016;2023-01-29T15:49:16;4.80;5.30
1429;DHT22;708;51.442;7.016;2023-01-29T15:51:45;4.80;4.10
1429;DHT22;708;51.442;7.016;2023-01-29T15:54:14;4.80;28.00
1429;DHT22;708;51.442;7.016;2023-01-29T15:56:44;4.80;33.60
1429;DHT22;708;51.442;7.016;2023-01-29T15:59:16;4.80;49.00
1429;DHT22;708;51.442;7.016;2023-01-29T16:01:43;4.80;90.80
1429;DHT22;708;51.442;7.016;2023-01-29T16:04:13;4.80;93.90
1429;DHT22;708;51.442;7.016;2023-01-29T16:06:40;4.80;99.90
1429;DHT22;708;51.442;7.016;2023-01-29T16:09:16;4.80;99.90
1429;DHT22;708;51.442;7.016;2023-01-29T16:11:45;4.80;99.90
1429;DHT22;708;51.442;7.016;2023-01-29T16:14:13;4.70;99.90
1429;DHT22;708;51.442;7.016;2023-01-29T16:16:42;4.80;99.90
1429;DHT22;708;51.442;7.016;2023-01-29T16:19:19;4.80;99.90
1429;DHT22;708;51.442;7.016;2023-01-29T16:21:51;4.80;99.90
1429;DHT22;708;51.442;7.016;2023-01-29T16:24:21;4.80;99.90
1429;DHT22;708;51.442;7.016;2023-01-29T16:26:51;4.80;99.90
1429;DHT22;708;51.442;7.016;2023-01-29T16:29:21;4.80;99.90
1429;DHT22;708;51.442;7.016;2023-01-29T16:31:51;4.80;99.90
1429;DHT22;708;51.442;7.016;2023-01-29T16:34:23;4.80;99.90
1429;DHT22;708;51.442;7.016;2023-01-29T16:36:52;4.80;99.90
1429;DHT22;708;51.442;7.016;2023-01-29T16:39:23;4.80;99.90
1429;DHT22;708;51.442;7.016;2023-01-29T16:44:50;4.90;99.90
1429;DHT22;708;51.442;7.016;2023-01-29T16:47:24;4.90;99.90
1429;DHT22;708;51.442;7.016;2023-01-29T16:49:53;4.90;99.90
1429;DHT22;708;51.442;7.016;2023-01-29T16:52:24;4.90;99.90
1429;DHT22;708;51.442;7.016;2023-01-29T16:54:57;4.90;99.90
1429;DHT22;708;51.442;7.016;2023-01-29T16:57:26;5.00;99.90
1429;DHT22;708;51.442;7.016;2023-01-29T16:59:55;4.90;99.90
1429;DHT22;708;51.442;7.016;2023-01-29T17:02:24;4.90;99.90
1429;DHT22;708;51.442;7.016;2023-01-29T17:04:54;5.00;99.90
1429;DHT22;708;51.442;7.016;2023-01-29T17:07:22;4.90;99.90
1429;DHT22;708;51.442;7.016;2023-01-29T17:09:50;5.00;99.90
1429;DHT22;708;51.442;7.016;2023-01-29T17:12:21;4.90;99.90
1429;DHT22;708;51.442;7.016;2023-01-29T17:14:53;5.00;99.90
1429;DHT22;708;51.442;7.016;2023-01-29T17:17:20;5.00;99.90
1429;DHT22;708;51.442;7.016;2023-01-29T17:19:47;5.00;99.90